Time;durP1;ratioP1;P1;durP2;ratioP2;P2;SDS_P1;SDS_P2;PMS_P1;PMS_P2;Temp;Humidity;BMP_temperature;BMP_pressure;BME280_temperature;BME280_humidity;BME280_pressure;Samples;Min_cycle;Max_cycle;Signal;HPM_P1;HPM_P2
2022/10/01 00:00:23;;;;;;;46.07;31.07;;;16.60;99.90;;;;;;5119889;28;20293;-71
2022/10/01 00:02:50;;;;;;;51.67;33.33;;;16.60;99.90;;;;;;5111878;28;20224;-70
2022/10/01 00:05:16;;;;;;;52.10;33.70;;;16.60;99.90;;;;;;5112928;28;20201;-71
2022/10/01 00:07:45;;;;;;;64.50;37.57;;;16.60;99.90;;;;;;5115690;27;20222;-71
2022/10/01 00:10:13;;;;;;;73.60;39.83;;;16.60;99.90;;;;;;5133239;27;20211;-71
2022/10/01 00:12:46;;;;;;;51.77;33.17;;;16.50;99.90;;;;;;5136355;27;20695;-71
2022/10/01 00:15:14;;;;;;;49.27;32.77;;;16.50;99.90;;;;;;5136029;27;20195;-72
2022/10/01 00:17:42;;;;;;;48.40;31.60;;;16.50;99.90;;;;;;5136020;27;20205;-70
2022/10/01 00:20:10;;;;;;;42.07;29.90;;;16.40;99.90;;;;;;5133355;27;20679;-70
2022/10/01 00:22:37;;;;;;;44.03;29.47;;;16.40;99.90;;;;;;5115397;28;20770;-71
2022/10/01 00:25:06;;;;;;;38.67;27.80;;;16.40;99.90;;;;;;5114931;28;20208;-72
2022/10/01 00:27:34;;;;;;;41.20;28.43;;;16.30;99.90;;;;;;5118612;27;20665;-71
2022/10/01 00:30:03;;;;;;;40.50;27.47;;;16.30;99.90;;;;;;5125487;27;20239;-70
2022/10/01 00:32:31;;;;;;;40.33;28.73;;;16.30;99.90;;;;;;5135667;27;20272;-72
2022/10/01 00:34:58;;;;;;;42.60;28.30;;;16.20;99.90;;;;;;5135653;27;20821;-71
2022/10/01 00:37:25;;;;;;;41.50;28.93;;;16.20;99.90;;;;;;5135622;27;20210;-70
2022/10/01 00:39:52;;;;;;;46.77;29.10;;;16.20;99.90;;;;;;5135765;27;20205;-70
2022/10/01 00:42:21;;;;;;;41.63;28.43;;;16.20;99.90;;;;;;5135831;27;20741;-72
2022/10/01 00:44:49;;;;;;;45.10;29.40;;;16.10;99.90;;;;;;5126098;27;20260;-71
2022/10/01 00:47:25;;;;;;;40.43;27.07;;;16.10;99.90;;;;;;5125410;27;20201;-72
2022/10/01 00:49:56;;;;;;;44.67;29.80;;;16.10;99.90;;;;;;5135638;27;20251;-71
2022/10/01 00:52:28;;;;;;;50.23;30.70;;;16.00;99.90;;;;;;5135378;27;20215;-71
2022/10/01 00:55:00;;;;;;;41.87;27.87;;;16.00;99.90;;;;;;5135510;27;20256;-71
2022/10/01 00:57:27;;;;;;;40.43;27.63;;;16.00;99.90;;;;;;5135291;27;20237;-72
2022/10/01 00:59:58;;;;;;;38.23;25.80;;;16.00;99.90;;;;;;5134897;27;20198;-69
2022/10/01 01:02:27;;;;;;;37.30;26.27;;;15.90;99.90;;;;;;5133625;27;20223;-71
2022/10/01 01:04:53;;;;;;;39.83;26.60;;;15.90;99.90;;;;;;5135237;27;20210;-71
2022/10/01 01:07:21;;;;;;;34.27;23.87;;;15.90;99.90;;;;;;5134639;27;20206;-71
2022/10/01 01:09:51;;;;;;;37.87;25.57;;;15.80;99.90;;;;;;5135083;27;20699;-71
2022/10/01 01:12:31;;;;;;;34.97;24.87;;;15.80;99.90;;;;;;5134811;27;20203;-70
2022/10/01 01:15:09;;;;;;;37.17;24.67;;;15.70;99.90;;;;;;5126659;27;20191;-71
2022/10/01 01:17:44;;;;;;;35.60;24.53;;;15.70;99.90;;;;;;5114453;28;20217;-71
2022/10/01 01:20:33;;;;;;;36.47;25.37;;;15.70;99.90;;;;;;5114391;28;20188;-71
2022/10/01 01:23:36;;;;;;;34.77;23.07;;;15.70;99.90;;;;;;5064063;28;20758;-72
2022/10/01 01:26:16;;;;;;;35.23;23.73;;;15.60;99.90;;;;;;5114224;28;20183;-70
2022/10/01 01:28:48;;;;;;;34.67;22.77;;;15.60;99.90;;;;;;5114435;28;20223;-71
2022/10/01 01:31:21;;;;;;;31.90;22.30;;;15.60;99.90;;;;;;5132498;27;20673;-71
2022/10/01 01:33:51;;;;;;;34.13;22.07;;;15.50;99.90;;;;;;5114341;28;20527;-71
2022/10/01 01:36:22;;;;;;;31.17;21.57;;;15.50;99.90;;;;;;5113739;28;20210;-70
2022/10/01 01:38:53;;;;;;;31.27;21.07;;;15.50;99.90;;;;;;5113556;28;20245;-71
2022/10/01 01:41:22;;;;;;;29.73;20.20;;;15.50;99.90;;;;;;5113464;27;20212;-72
2022/10/01 01:43:53;;;;;;;29.37;20.67;;;15.50;99.90;;;;;;5113890;28;20203;-71
2022/10/01 01:46:21;;;;;;;29.10;19.60;;;15.40;99.90;;;;;;5114210;27;20205;-71
2022/10/01 01:48:52;;;;;;;27.23;19.50;;;15.40;99.90;;;;;;5114181;28;20345;-71
2022/10/01 01:51:24;;;;;;;28.03;20.30;;;15.40;99.90;;;;;;5113846;28;20211;-71
2022/10/01 01:53:51;;;;;;;30.97;20.63;;;15.40;99.90;;;;;;5113656;28;20223;-70
2022/10/01 01:56:18;;;;;;;26.77;19.10;;;15.40;99.90;;;;;;5113764;28;20659;-70
2022/10/01 01:58:46;;;;;;;26.87;18.70;;;15.30;99.90;;;;;;5113605;28;20238;-70
2022/10/01 02:01:34;;;;;;;24.60;17.97;;;15.30;99.90;;;;;;5114535;27;20587;-71
2022/10/01 02:04:03;;;;;;;25.90;17.77;;;15.30;99.90;;;;;;5113220;28;20194;-71
2022/10/01 02:06:42;;;;;;;25.30;17.93;;;15.20;99.90;;;;;;5113491;28;20213;-71
2022/10/01 02:09:18;;;;;;;23.90;16.43;;;15.20;99.90;;;;;;5113325;28;20556;-72
2022/10/01 02:11:53;;;;;;;22.50;15.93;;;15.20;99.90;;;;;;5113494;28;20190;-70
2022/10/01 02:14:29;;;;;;;22.87;15.30;;;15.20;99.90;;;;;;5113186;28;20193;-71
2022/10/01 02:17:02;;;;;;;21.10;14.90;;;15.20;99.90;;;;;;5113477;27;20203;-70
2022/10/01 02:19:33;;;;;;;22.83;15.33;;;15.20;99.90;;;;;;5113226;28;20196;-71
2022/10/01 02:22:03;;;;;;;20.33;14.13;;;15.10;99.90;;;;;;5113192;28;20218;-72
2022/10/01 02:24:39;;;;;;;23.43;14.33;;;15.10;99.90;;;;;;5113105;28;20296;-70
2022/10/01 02:27:11;;;;;;;19.33;13.97;;;15.10;99.90;;;;;;5113039;28;20217;-69
2022/10/01 02:29:40;;;;;;;18.90;13.37;;;15.10;99.90;;;;;;5115502;27;20199;-70
2022/10/01 02:32:10;;;;;;;19.43;13.83;;;15.10;99.90;;;;;;5133088;27;20205;-72
2022/10/01 02:34:38;;;;;;;21.77;15.47;;;15.10;99.90;;;;;;5127330;27;20256;-71
2022/10/01 02:37:08;;;;;;;23.73;14.83;;;15.00;99.90;;;;;;5112232;28;20210;-71
2022/10/01 02:39:39;;;;;;;20.53;14.47;;;15.10;99.90;;;;;;5112722;28;20203;-69
2022/10/01 02:42:09;;;;;;;20.97;14.53;;;15.00;99.90;;;;;;5112128;28;20210;-70
2022/10/01 02:44:41;;;;;;;21.10;13.80;;;15.00;99.90;;;;;;5112505;28;20211;-71
2022/10/01 02:47:14;;;;;;;20.30;13.70;;;15.00;99.90;;;;;;5127292;27;20251;-71
2022/10/01 02:49:41;;;;;;;19.90;12.80;;;15.00;99.90;;;;;;5133406;27;20547;-71
2022/10/01 02:52:14;;;;;;;17.20;12.43;;;14.90;99.90;;;;;;5132961;27;20203;-70
2022/10/01 02:54:49;;;;;;;20.90;12.57;;;14.90;99.90;;;;;;5133478;27;20587;-69
2022/10/01 02:57:22;;;;;;;19.13;12.07;;;14.90;99.90;;;;;;5133283;27;20186;-70
2022/10/01 02:59:49;;;;;;;16.37;11.33;;;14.90;99.90;;;;;;5132700;27;20193;-70
2022/10/01 03:02:18;;;;;;;18.70;11.77;;;14.90;99.90;;;;;;5129240;28;20244;-71
2022/10/01 03:04:46;;;;;;;23.63;17.10;;;14.90;99.90;;;;;;5132625;28;20210;-70
2022/10/01 03:07:13;;;;;;;20.70;13.63;;;14.90;99.90;;;;;;5112787;28;20210;-70
2022/10/01 03:09:40;;;;;;;15.40;10.77;;;14.90;99.90;;;;;;5112388;28;20711;-69
2022/10/01 03:12:09;;;;;;;15.10;11.33;;;14.90;99.90;;;;;;5112570;28;20225;-71
2022/10/01 03:14:38;;;;;;;15.97;10.17;;;14.80;99.90;;;;;;5112532;28;20214;-71
2022/10/01 03:17:05;;;;;;;12.53;9.43;;;14.90;99.90;;;;;;5112532;28;20682;-71
2022/10/01 03:19:33;;;;;;;19.07;9.77;;;14.90;99.90;;;;;;5112012;28;20200;-71
2022/10/01 03:22:00;;;;;;;15.47;11.70;;;14.90;99.90;;;;;;5111628;28;20203;-70
2022/10/01 03:24:27;;;;;;;14.23;9.93;;;14.90;99.90;;;;;;5112385;28;20685;-71
2022/10/01 03:26:54;;;;;;;15.43;10.53;;;14.90;99.90;;;;;;5111920;28;20199;-71
2022/10/01 03:29:21;;;;;;;17.53;11.37;;;14.90;99.90;;;;;;5111764;28;20695;-71
2022/10/01 03:31:48;;;;;;;14.80;9.30;;;14.90;99.90;;;;;;5112053;28;20203;-70
2022/10/01 03:34:15;;;;;;;13.00;9.87;;;14.80;99.90;;;;;;5111962;28;20225;-71
2022/10/01 03:36:43;;;;;;;13.07;9.13;;;14.90;99.90;;;;;;5118693;28;20199;-71
2022/10/01 03:39:10;;;;;;;12.57;8.90;;;14.80;99.90;;;;;;5132823;27;20203;-70
2022/10/01 03:41:37;;;;;;;14.23;9.60;;;14.90;99.90;;;;;;5135717;27;20213;-71
2022/10/01 03:44:03;;;;;;;11.97;8.80;;;14.90;99.90;;;;;;5135663;27;20201;-70
2022/10/01 03:46:30;;;;;;;12.87;8.60;;;14.90;99.90;;;;;;5136019;27;20305;-71
2022/10/01 03:48:59;;;;;;;11.07;8.30;;;14.90;99.90;;;;;;5136569;27;20259;-70
2022/10/01 03:51:26;;;;;;;11.57;8.70;;;14.90;99.90;;;;;;5136809;27;20237;-70
2022/10/01 03:53:55;;;;;;;13.33;8.37;;;14.90;99.90;;;;;;5134813;27;20226;-72
2022/10/01 03:56:22;;;;;;;14.37;8.47;;;14.90;99.90;;;;;;5136712;27;20564;-70
2022/10/01 03:58:49;;;;;;;12.57;9.30;;;14.90;99.90;;;;;;5135837;27;20241;-70
2022/10/01 04:01:15;;;;;;;11.37;8.67;;;14.90;99.90;;;;;;5136645;27;20209;-70
2022/10/01 04:03:43;;;;;;;13.83;8.90;;;14.90;99.90;;;;;;5136076;27;20195;-71
2022/10/01 04:06:09;;;;;;;10.07;8.13;;;14.90;99.90;;;;;;5136097;27;20203;-71
2022/10/01 04:08:37;;;;;;;12.43;9.17;;;14.90;99.90;;;;;;5133959;27;20206;-71
2022/10/01 04:11:05;;;;;;;13.00;9.83;;;14.90;99.90;;;;;;5136365;27;20289;-71
2022/10/01 04:13:33;;;;;;;10.53;8.77;;;14.90;99.90;;;;;;5135594;27;20218;-73
2022/10/01 04:16:00;;;;;;;13.10;9.30;;;14.90;99.90;;;;;;5134166;27;20626;-71
2022/10/01 04:18:27;;;;;;;15.73;10.00;;;14.90;99.90;;;;;;5122004;27;20548;-71
2022/10/01 04:20:53;;;;;;;12.00;8.90;;;14.90;99.90;;;;;;5115054;28;20667;-71
2022/10/01 04:23:21;;;;;;;15.43;10.40;;;14.90;99.90;;;;;;5124479;27;20205;-70
2022/10/01 04:25:48;;;;;;;14.17;9.63;;;15.00;99.90;;;;;;5135736;27;20202;-71
2022/10/01 04:28:16;;;;;;;12.77;9.70;;;14.90;99.90;;;;;;5135766;27;20583;-70
2022/10/01 04:30:45;;;;;;;12.13;9.20;;;14.90;99.90;;;;;;5135301;27;20213;-71
2022/10/01 04:33:13;;;;;;;12.77;9.50;;;14.90;99.90;;;;;;5134705;27;20226;-70
2022/10/01 04:35:40;;;;;;;12.43;9.50;;;14.90;99.90;;;;;;5114851;28;20199;-70
2022/10/01 04:38:11;;;;;;;13.87;9.67;;;15.00;99.90;;;;;;5115289;28;20235;-72
2022/10/01 04:40:38;;;;;;;14.33;9.50;;;15.00;99.90;;;;;;5115183;28;20227;-71
2022/10/01 04:43:07;;;;;;;13.47;10.03;;;14.90;99.90;;;;;;5114782;28;20659;-70
2022/10/01 04:45:35;;;;;;;15.97;9.50;;;14.90;99.90;;;;;;5114714;28;20264;-71
2022/10/01 04:48:03;;;;;;;15.40;9.90;;;14.90;99.90;;;;;;5114341;27;20218;-70
2022/10/01 04:50:31;;;;;;;15.33;10.07;;;14.90;99.90;;;;;;5134877;27;20249;-71
2022/10/01 04:52:57;;;;;;;13.70;10.03;;;14.90;99.90;;;;;;5135401;27;20222;-71
2022/10/01 04:55:24;;;;;;;14.87;9.87;;;14.90;99.90;;;;;;5135175;27;20198;-71
2022/10/01 04:57:51;;;;;;;13.27;8.90;;;14.90;99.90;;;;;;5121005;27;20234;-71
2022/10/01 05:00:20;;;;;;;16.17;10.53;;;14.90;99.90;;;;;;5114897;28;20656;-70
2022/10/01 05:02:49;;;;;;;13.60;9.00;;;14.90;99.90;;;;;;5114381;28;20667;-73
2022/10/01 05:05:18;;;;;;;11.47;9.00;;;14.90;99.90;;;;;;5122710;27;20575;-72
2022/10/01 05:07:45;;;;;;;14.93;9.60;;;15.00;99.90;;;;;;5134610;27;20206;-71
2022/10/01 05:10:14;;;;;;;14.10;9.70;;;15.00;99.90;;;;;;5135108;27;20221;-74
2022/10/01 05:12:41;;;;;;;14.20;9.27;;;15.00;99.90;;;;;;5135477;27;20658;-70
2022/10/01 05:15:08;;;;;;;15.43;10.27;;;15.00;99.90;;;;;;5134952;27;20241;-71
2022/10/01 05:17:35;;;;;;;14.77;10.13;;;15.00;99.90;;;;;;5133729;27;20199;-70
2022/10/01 05:20:06;;;;;;;12.03;9.83;;;15.00;99.90;;;;;;5134853;27;20202;-71
2022/10/01 05:22:33;;;;;;;12.47;9.50;;;15.10;99.90;;;;;;5134318;27;20234;-72
2022/10/01 05:25:01;;;;;;;19.10;13.47;;;15.10;99.90;;;;;;5134986;27;20570;-72
2022/10/01 05:27:28;;;;;;;14.43;10.63;;;15.10;99.90;;;;;;5134859;27;20202;-72
2022/10/01 05:29:55;;;;;;;16.57;13.17;;;15.10;99.90;;;;;;5135320;27;20209;-71
2022/10/01 05:32:22;;;;;;;15.20;10.77;;;15.10;99.90;;;;;;5133817;27;20210;-71
2022/10/01 05:34:49;;;;;;;13.70;10.17;;;15.20;99.90;;;;;;5134201;27;20227;-70
2022/10/01 05:37:18;;;;;;;14.07;9.40;;;15.20;99.90;;;;;;5116050;27;20203;-70
2022/10/01 05:39:44;;;;;;;11.90;9.50;;;15.20;99.90;;;;;;5113675;28;20299;-72
2022/10/01 05:42:11;;;;;;;13.77;8.53;;;15.30;99.90;;;;;;5126916;27;20196;-70
2022/10/01 05:44:39;;;;;;;14.00;9.93;;;15.30;99.90;;;;;;5133857;27;20205;-70
2022/10/01 05:47:06;;;;;;;15.53;9.90;;;15.40;99.90;;;;;;5134092;27;20242;-69
2022/10/01 05:49:33;;;;;;;12.27;9.07;;;15.40;99.90;;;;;;5127055;27;20609;-72
2022/10/01 05:52:00;;;;;;;13.23;8.77;;;15.40;99.90;;;;;;5120393;27;20256;-72
2022/10/01 05:54:29;;;;;;;12.13;9.30;;;15.50;99.90;;;;;;5123282;27;20589;-70
2022/10/01 05:56:56;;;;;;;12.20;8.63;;;15.50;99.90;;;;;;5123482;27;20245;-71
2022/10/01 05:59:23;;;;;;;11.80;8.70;;;15.60;99.90;;;;;;5120862;27;20836;-71
2022/10/01 06:01:50;;;;;;;11.73;8.97;;;15.60;99.90;;;;;;5123451;27;20561;-70
2022/10/01 06:04:17;;;;;;;11.43;8.63;;;15.60;99.90;;;;;;5122510;27;20725;-71
2022/10/01 06:06:43;;;;;;;10.87;8.57;;;15.70;99.90;;;;;;5120549;27;20655;-71
2022/10/01 06:09:10;;;;;;;14.47;9.50;;;15.70;99.90;;;;;;5122193;27;20694;-71
2022/10/01 06:11:39;;;;;;;11.43;8.43;;;15.80;99.90;;;;;;5122437;27;20207;-71
2022/10/01 06:14:06;;;;;;;12.47;9.40;;;15.90;99.90;;;;;;5112813;28;20222;-72
2022/10/01 06:16:33;;;;;;;12.30;8.77;;;15.90;99.90;;;;;;5112286;28;20215;-71
2022/10/01 06:19:00;;;;;;;13.93;8.53;;;16.00;99.90;;;;;;5113306;28;20207;-72
2022/10/01 06:21:27;;;;;;;11.53;8.27;;;16.00;99.90;;;;;;5112265;28;20197;-73
2022/10/01 06:23:54;;;;;;;14.30;9.30;;;16.10;99.90;;;;;;5111930;28;20199;-71
2022/10/01 06:26:21;;;;;;;12.33;8.83;;;16.10;99.90;;;;;;5111590;28;20193;-72
2022/10/01 06:28:51;;;;;;;13.17;9.50;;;16.20;99.90;;;;;;5112691;28;20693;-71
2022/10/01 06:31:19;;;;;;;14.00;9.30;;;16.20;99.90;;;;;;5120036;27;20208;-73
2022/10/01 06:33:46;;;;;;;13.60;9.60;;;16.30;99.90;;;;;;5132465;27;20218;-71
2022/10/01 06:36:13;;;;;;;12.57;9.13;;;16.30;99.90;;;;;;5133407;27;20226;-71
2022/10/01 06:38:41;;;;;;;14.13;7.77;;;16.40;99.90;;;;;;5133714;27;20211;-72
2022/10/01 06:41:10;;;;;;;12.47;7.77;;;16.40;99.90;;;;;;5133894;27;20239;-72
2022/10/01 06:43:37;;;;;;;10.17;7.30;;;16.50;99.90;;;;;;5133550;27;20200;-71
2022/10/01 06:46:06;;;;;;;11.67;8.57;;;16.60;99.90;;;;;;5132591;27;20207;-72
2022/10/01 06:48:35;;;;;;;10.23;7.80;;;16.60;99.90;;;;;;5113166;28;20210;-73
2022/10/01 06:51:02;;;;;;;12.93;6.97;;;16.70;99.90;;;;;;5112970;28;20194;-72
2022/10/01 06:53:28;;;;;;;12.23;6.60;;;16.70;99.90;;;;;;5112510;28;20225;-74
2022/10/01 06:55:55;;;;;;;14.97;6.10;;;16.80;99.90;;;;;;5129033;27;20207;-72
2022/10/01 06:58:25;;;;;;;7.40;5.30;;;16.80;99.90;;;;;;5132605;27;20640;-74
2022/10/01 07:00:57;;;;;;;8.17;6.43;;;16.90;99.90;;;;;;5128861;27;20198;-71
2022/10/01 07:03:25;;;;;;;9.03;4.90;;;17.00;99.90;;;;;;5133175;28;20768;-73
2022/10/01 07:05:52;;;;;;;7.00;5.00;;;17.00;99.90;;;;;;5125595;28;20278;-72
2022/10/01 07:08:19;;;;;;;13.93;6.47;;;17.10;99.90;;;;;;5112351;28;20215;-74
2022/10/01 07:10:46;;;;;;;6.57;5.10;;;17.20;99.90;;;;;;5112861;28;20722;-71
2022/10/01 07:13:15;;;;;;;5.80;4.90;;;17.30;99.90;;;;;;5111724;28;20221;-71
2022/10/01 07:15:43;;;;;;;8.20;5.67;;;17.40;99.90;;;;;;5116193;28;20202;-71
2022/10/01 07:18:11;;;;;;;7.17;4.60;;;17.50;99.90;;;;;;5134102;27;20209;-72
2022/10/01 07:20:40;;;;;;;8.37;4.20;;;17.60;99.90;;;;;;5137537;27;20289;-72
2022/10/01 07:23:08;;;;;;;6.07;3.90;;;17.70;99.90;;;;;;5136705;27;20203;-74
2022/10/01 07:25:35;;;;;;;7.83;3.90;;;17.80;99.90;;;;;;5122355;27;20205;-73
2022/10/01 07:28:04;;;;;;;5.30;3.67;;;17.90;99.90;;;;;;5116169;28;20661;-71
2022/10/01 07:30:31;;;;;;;4.83;3.13;;;18.00;99.90;;;;;;5116295;27;20667;-71
2022/10/01 07:32:58;;;;;;;3.33;2.93;;;18.10;99.90;;;;;;5131066;27;20205;-72
2022/10/01 07:35:25;;;;;;;3.37;2.70;;;18.10;99.90;;;;;;5136471;27;20231;-71
2022/10/01 07:37:54;;;;;;;3.50;2.40;;;18.20;99.90;;;;;;5118536;27;20216;-73
2022/10/01 07:40:21;;;;;;;3.13;2.40;;;18.30;99.90;;;;;;5116687;27;20203;-74
2022/10/01 07:42:53;;;;;;;3.70;2.20;;;18.40;99.90;;;;;;5116833;28;20210;-72
2022/10/01 07:45:20;;;;;;;2.80;2.10;;;18.50;99.90;;;;;;5115751;27;20645;-71
2022/10/01 07:47:52;;;;;;;6.27;4.53;;;18.50;99.90;;;;;;5116184;28;20244;-70
2022/10/01 07:50:19;;;;;;;3.97;3.10;;;18.60;99.90;;;;;;5119309;28;20192;-72
2022/10/01 07:52:51;;;;;;;3.97;2.70;;;18.70;99.90;;;;;;5117398;28;20204;-72
2022/10/01 07:55:20;;;;;;;3.77;2.70;;;18.70;99.90;;;;;;5118172;28;20686;-73
2022/10/01 07:57:51;;;;;;;3.77;2.00;;;18.80;99.90;;;;;;5120069;28;20241;-70
2022/10/01 08:00:19;;;;;;;2.27;2.07;;;18.90;99.90;;;;;;5128935;27;20203;-73
2022/10/01 08:02:50;;;;;;;5.27;3.10;;;18.90;99.90;;;;;;5131406;27;20206;-70
2022/10/01 08:05:17;;;;;;;3.73;2.40;;;19.00;99.90;;;;;;5121270;27;20192;-70
2022/10/01 08:07:45;;;;;;;2.60;2.23;;;19.10;99.90;;;;;;5125968;27;20603;-69
2022/10/01 08:10:12;;;;;;;4.83;2.40;;;19.10;99.90;;;;;;5133216;27;20208;-70
2022/10/01 08:12:41;;;;;;;3.23;2.23;;;19.20;99.90;;;;;;5119112;27;20702;-71
2022/10/01 08:15:10;;;;;;;4.07;2.70;;;19.30;99.90;;;;;;5119806;27;20264;-71
2022/10/01 08:17:37;;;;;;;4.93;2.30;;;19.40;99.90;;;;;;5115059;28;20216;-71
2022/10/01 08:20:05;;;;;;;3.67;2.30;;;19.50;99.90;;;;;;5115474;27;20264;-71
2022/10/01 08:22:32;;;;;;;3.40;2.30;;;19.50;99.90;;;;;;5115231;28;20553;-73
2022/10/01 08:24:59;;;;;;;3.90;2.50;;;19.60;99.90;;;;;;5115589;27;20198;-72
2022/10/01 08:27:26;;;;;;;4.37;1.97;;;19.70;99.90;;;;;;5113233;28;20759;-71
2022/10/01 08:29:54;;;;;;;3.40;2.63;;;19.70;99.90;;;;;;5115059;28;20217;-72
2022/10/01 08:32:22;;;;;;;2.30;2.10;;;19.80;99.90;;;;;;5115608;28;20210;-72
2022/10/01 08:34:48;;;;;;;3.17;2.40;;;19.80;99.90;;;;;;5115162;28;20261;-71
2022/10/01 08:37:16;;;;;;;2.30;2.10;;;19.80;99.90;;;;;;5114992;28;20207;-72
2022/10/01 08:39:43;;;;;;;2.50;2.10;;;19.90;99.90;;;;;;5116055;28;20203;-71
2022/10/01 08:42:21;;;;;;;2.70;2.00;;;20.00;99.90;;;;;;5116240;28;20209;-74
2022/10/01 08:44:51;;;;;;;1.80;1.70;;;20.10;99.90;;;;;;5115881;28;20183;-73
2022/10/01 08:47:27;;;;;;;4.27;1.70;;;20.20;99.90;;;;;;5115554;28;20215;-70
2022/10/01 08:49:58;;;;;;;2.70;1.90;;;20.20;99.90;;;;;;5116154;28;20200;-73
2022/10/01 08:52:28;;;;;;;3.23;1.70;;;20.30;99.90;;;;;;5115937;28;20230;-74
2022/10/01 08:54:58;;;;;;;2.23;1.80;;;20.40;99.90;;;;;;5115476;28;20580;-71
2022/10/01 08:57:29;;;;;;;3.67;1.97;;;20.40;99.90;;;;;;5114984;28;20192;-71
2022/10/01 08:59:59;;;;;;;2.23;1.80;;;20.40;99.90;;;;;;5114557;28;20188;-72
2022/10/01 09:02:29;;;;;;;4.17;1.87;;;20.40;99.90;;;;;;5115528;28;20231;-70
2022/10/01 09:04:58;;;;;;;2.83;1.80;;;20.30;99.90;;;;;;5115183;28;20218;-72
2022/10/01 09:07:49;;;;;;;1.83;1.50;;;20.30;99.90;;;;;;5114772;28;20211;-73
2022/10/01 09:10:32;;;;;;;2.63;1.77;;;20.40;99.90;;;;;;5114894;28;20188;-72
2022/10/01 09:13:21;;;;;;;3.60;1.70;;;20.40;99.90;;;;;;5114787;28;20188;-72
2022/10/01 09:15:55;;;;;;;3.23;2.20;;;20.40;99.90;;;;;;5115483;28;20208;-71
2022/10/01 09:18:35;;;;;;;1.70;1.47;;;20.40;99.90;;;;;;5115162;28;20284;-73
2022/10/01 09:21:02;;;;;;;5.10;1.80;;;20.40;99.90;;;;;;5114782;28;20539;-70
2022/10/01 09:23:31;;;;;;;2.37;1.50;;;20.50;99.90;;;;;;5114448;28;20203;-72
2022/10/01 09:25:59;;;;;;;1.80;1.50;;;20.50;99.90;;;;;;5114801;28;20202;-74
2022/10/01 09:28:29;;;;;;;1.70;1.60;;;20.60;99.90;;;;;;5114741;28;20206;-72
2022/10/01 09:30:59;;;;;;;1.97;1.70;;;20.50;99.90;;;;;;5114573;28;20206;-72
2022/10/01 09:33:33;;;;;;;2.90;1.60;;;20.50;99.90;;;;;;5114573;28;20194;-71
2022/10/01 09:36:10;;;;;;;1.90;1.70;;;20.50;99.90;;;;;;5115106;28;20218;-74
2022/10/01 09:38:40;;;;;;;2.43;1.60;;;20.60;99.90;;;;;;5113620;28;20241;-72
2022/10/01 09:41:09;;;;;;;4.03;1.90;;;20.60;99.90;;;;;;5114134;28;20218;-72
2022/10/01 09:43:38;;;;;;;1.90;1.70;;;20.50;99.90;;;;;;5114797;28;20207;-73
2022/10/01 09:46:12;;;;;;;1.87;1.63;;;20.50;99.90;;;;;;5114360;28;20211;-72
2022/10/01 09:48:45;;;;;;;5.17;1.60;;;20.50;99.90;;;;;;5114857;28;20621;-70
2022/10/01 09:51:17;;;;;;;3.07;1.50;;;20.50;99.90;;;;;;5114286;28;20191;-71
2022/10/01 09:53:47;;;;;;;2.00;1.80;;;20.50;99.90;;;;;;5114056;28;20750;-71
2022/10/01 09:56:22;;;;;;;4.60;1.80;;;20.50;99.90;;;;;;5114508;28;20696;-71
2022/10/01 09:58:55;;;;;;;2.30;1.60;;;20.50;99.90;;;;;;5113877;28;20242;-71
2022/10/01 10:01:26;;;;;;;3.90;1.60;;;20.60;99.90;;;;;;5114588;28;20218;-72
2022/10/01 10:03:56;;;;;;;1.93;1.50;;;20.50;99.90;;;;;;5113960;28;20187;-72
2022/10/01 10:06:28;;;;;;;2.50;1.70;;;20.50;99.90;;;;;;5114375;28;20197;-71
2022/10/01 10:08:58;;;;;;;3.00;1.50;;;20.50;99.90;;;;;;5113572;28;20214;-73
2022/10/01 10:11:28;;;;;;;5.53;1.73;;;20.50;99.90;;;;;;5114163;28;20210;-74
2022/10/01 10:13:59;;;;;;;3.73;2.10;;;20.60;99.90;;;;;;5114798;28;20191;-73
2022/10/01 10:16:29;;;;;;;4.60;1.80;;;20.70;99.90;;;;;;5114513;28;20196;-70
2022/10/01 10:19:01;;;;;;;5.07;1.80;;;20.70;99.90;;;;;;5115551;28;20215;-74
2022/10/01 10:21:30;;;;;;;4.47;2.23;;;20.80;99.90;;;;;;5115198;28;20527;-72
2022/10/01 10:23:59;;;;;;;3.07;1.70;;;20.90;99.90;;;;;;5113233;28;20211;-72
2022/10/01 10:26:30;;;;;;;3.13;1.50;;;20.90;99.90;;;;;;5113534;28;20196;-71
2022/10/01 10:28:58;;;;;;;5.90;4.00;;;21.00;99.90;;;;;;5113472;28;20191;-71
2022/10/01 10:31:27;;;;;;;4.67;1.77;;;21.10;99.90;;;;;;5113529;28;20207;-71
2022/10/01 10:34:01;;;;;;;2.60;1.90;;;21.00;99.90;;;;;;5113333;28;20204;-69
2022/10/01 10:36:32;;;;;;;2.40;1.70;;;21.00;99.90;;;;;;5113211;28;20738;-70
2022/10/01 10:38:59;;;;;;;5.40;2.00;;;21.10;99.90;;;;;;5112402;28;20277;-70
2022/10/01 10:41:28;;;;;;;3.33;1.93;;;21.10;99.90;;;;;;5112890;28;20199;-72
2022/10/01 10:44:00;;;;;;;3.27;2.20;;;21.20;99.90;;;;;;5112727;28;20204;-72
2022/10/01 10:46:30;;;;;;;3.97;2.20;;;21.20;99.90;;;;;;5113085;28;20246;-70
2022/10/01 10:49:06;;;;;;;3.17;1.70;;;21.20;99.90;;;;;;5112116;28;20203;-73
2022/10/01 10:51:54;;;;;;;6.20;1.93;;;21.20;99.90;;;;;;5113612;28;20198;-72
2022/10/01 10:54:25;;;;;;;4.20;1.83;;;21.30;99.90;;;;;;5105460;28;20523;-71
2022/10/01 10:56:59;;;;;;;2.83;1.87;;;21.40;99.90;;;;;;5112967;28;20195;-71
2022/10/01 10:59:31;;;;;;;6.27;2.20;;;21.40;99.90;;;;;;5112974;28;20323;-71
2022/10/01 11:02:00;;;;;;;3.40;2.20;;;21.40;99.90;;;;;;5113145;28;20268;-71
2022/10/01 11:04:42;;;;;;;3.40;1.80;;;21.40;99.90;;;;;;5113103;28;20205;-71
2022/10/01 11:07:12;;;;;;;5.17;1.60;;;21.40;99.90;;;;;;5112482;28;20193;-71
2022/10/01 11:09:52;;;;;;;3.80;2.00;;;21.40;99.90;;;;;;5112837;28;20239;-72
2022/10/01 11:12:29;;;;;;;5.90;1.80;;;21.50;99.90;;;;;;5112705;28;20189;-71
2022/10/01 11:15:16;;;;;;;2.53;2.00;;;21.50;99.90;;;;;;5112256;28;20230;-70
2022/10/01 11:18:08;;;;;;;6.07;1.90;;;21.50;99.90;;;;;;5112202;28;20193;-74
2022/10/01 11:20:48;;;;;;;3.07;2.40;;;21.40;99.90;;;;;;5112393;28;20193;-74
2022/10/01 11:23:42;;;;;;;4.60;2.17;;;21.40;99.90;;;;;;5112993;28;20575;-71
2022/10/01 11:26:19;;;;;;;4.97;2.70;;;21.40;99.90;;;;;;5112887;28;20555;-73
2022/10/01 11:28:55;;;;;;;4.80;2.43;;;21.40;99.90;;;;;;5112755;28;20495;-73
2022/10/01 11:31:32;;;;;;;4.37;2.77;;;21.30;99.90;;;;;;5113216;28;20189;-73
2022/10/01 11:34:14;;;;;;;3.20;2.57;;;21.30;99.90;;;;;;5112785;28;20193;-71
2022/10/01 11:36:50;;;;;;;5.00;2.00;;;21.30;99.90;;;;;;5112972;28;20222;-72
2022/10/01 11:39:20;;;;;;;4.37;2.50;;;21.20;99.90;;;;;;5112413;28;20227;-72
2022/10/01 11:41:51;;;;;;;3.33;2.40;;;21.20;99.90;;;;;;5112133;28;20212;-73
2022/10/01 11:44:24;;;;;;;5.90;2.33;;;21.10;99.90;;;;;;5112707;28;20548;-71
2022/10/01 11:46:57;;;;;;;6.93;2.10;;;21.10;99.90;;;;;;5112131;28;20189;-73
2022/10/01 11:49:42;;;;;;;3.37;2.30;;;21.10;99.90;;;;;;5112560;28;20188;-72
2022/10/01 11:52:18;;;;;;;10.50;2.40;;;21.10;99.90;;;;;;5108623;28;20295;-71
2022/10/01 11:54:56;;;;;;;4.07;2.20;;;21.10;99.90;;;;;;5112704;28;20189;-73
2022/10/01 12:00:11;;;;;;;5.20;2.73;;;21.00;99.90;;;;;;5112563;28;20648;-72
2022/10/01 12:02:48;;;;;;;3.67;2.50;;;21.00;99.90;;;;;;5115743;28;20289;-71
2022/10/01 12:05:18;;;;;;;3.70;2.83;;;20.90;99.90;;;;;;5114482;28;20203;-71
2022/10/01 12:07:53;;;;;;;5.77;2.73;;;20.90;99.90;;;;;;5121661;27;20196;-70
2022/10/01 12:10:32;;;;;;;3.60;2.40;;;20.80;99.90;;;;;;5115699;27;20209;-72
2022/10/01 12:13:07;;;;;;;3.17;2.50;;;20.70;99.90;;;;;;5116015;28;20201;-71
2022/10/01 12:15:47;;;;;;;3.33;2.40;;;20.70;99.90;;;;;;5115468;28;20211;-71
2022/10/01 12:18:20;;;;;;;4.40;2.17;;;20.70;99.90;;;;;;5123227;27;20267;-71
2022/10/01 12:20:50;;;;;;;4.13;2.50;;;20.60;99.90;;;;;;5136250;27;20188;-72
2022/10/01 12:23:22;;;;;;;3.70;2.60;;;20.60;99.90;;;;;;5136008;27;20542;-73
2022/10/01 12:25:56;;;;;;;5.37;2.70;;;20.50;99.90;;;;;;5119099;27;20201;-73
2022/10/01 12:28:28;;;;;;;3.23;2.60;;;20.50;99.90;;;;;;5116006;28;20183;-72
2022/10/01 12:31:00;;;;;;;4.73;3.17;;;20.50;99.90;;;;;;5115471;27;20203;-70
2022/10/01 12:33:57;;;;;;;7.43;5.07;;;20.50;99.90;;;;;;5121761;27;20579;-73
2022/10/01 12:36:35;;;;;;;8.60;4.47;;;20.50;99.90;;;;;;5119900;27;20215;-73
2022/10/01 12:39:28;;;;;;;3.03;2.50;;;20.50;99.90;;;;;;5115205;28;20643;-72
2022/10/01 12:42:05;;;;;;;3.93;2.70;;;20.50;99.90;;;;;;5115916;28;20192;-71
2022/10/01 12:44:45;;;;;;;3.83;2.80;;;20.50;99.90;;;;;;5114922;27;20550;-72
2022/10/01 12:47:26;;;;;;;4.97;2.80;;;20.50;99.90;;;;;;5115839;27;20263;-72
2022/10/01 12:50:01;;;;;;;4.83;2.80;;;20.50;99.90;;;;;;5136467;27;20236;-73
2022/10/01 12:52:40;;;;;;;7.07;3.00;;;20.50;99.90;;;;;;5118793;27;20201;-74
2022/10/01 12:55:21;;;;;;;4.10;2.87;;;20.50;99.90;;;;;;5115655;28;20214;-72
2022/10/01 12:58:00;;;;;;;4.50;3.13;;;20.60;99.90;;;;;;5124230;27;20207;-73